createdAt,value
2018-05-10T00:00:33.948Z,99269.52
2018-05-10T00:01:39.730Z,99267.59
2018-05-10T00:02:46.275Z,99269.67
2018-05-10T00:03:51.826Z,99266.94
2018-05-10T00:04:58.379Z,99269.75
2018-05-10T00:06:04.160Z,99269.48
2018-05-10T00:07:09.721Z,99265.08
2018-05-10T00:08:15.483Z,99263.25
2018-05-10T00:09:21.272Z,99265.64
2018-05-10T00:10:27.052Z,99259.56
2018-05-10T00:11:32.823Z,99260.82
2018-05-10T00:12:38.594Z,99258.84
2018-05-10T00:13:45.371Z,99257.40
2018-05-10T00:14:51.149Z,99257.25
2018-05-10T00:15:56.920Z,99254.43
2018-05-10T00:17:02.693Z,99252.76
2018-05-10T00:18:08.457Z,99247.09
2018-05-10T00:19:14.231Z,99253.67
2018-05-10T00:20:20.024Z,99253.59
2018-05-10T00:21:25.800Z,99249.53
2018-05-10T00:22:31.790Z,99248.69
2018-05-10T00:23:38.335Z,99246.79
2018-05-10T00:24:44.140Z,99243.78
2018-05-10T00:25:49.925Z,99249.11
2018-05-10T00:26:56.461Z,99250.62
2018-05-10T00:28:02.005Z,99255.69
2018-05-10T00:29:07.776Z,99245.72
2018-05-10T00:30:14.076Z,99246.63
2018-05-10T00:31:19.870Z,99246.37
2018-05-10T00:32:26.403Z,99245.30
2018-05-10T00:33:32.176Z,99248.38
2018-05-10T00:34:38.711Z,99251.54
2018-05-10T00:35:44.484Z,99250.44
2018-05-10T00:36:51.027Z,99247.47
2018-05-10T00:37:57.563Z,99245.27
2018-05-10T00:39:03.635Z,99250.17
2018-05-10T00:40:09.394Z,99252.61
2018-05-10T00:41:15.179Z,99257.74
2018-05-10T00:42:20.971Z,99256.91
2018-05-10T00:43:26.746Z,99252.34
2018-05-10T00:44:32.515Z,99251.31
2018-05-10T00:45:38.279Z,99242.84
2018-05-10T00:46:44.039Z,99245.73
2018-05-10T00:47:50.594Z,99251.80
2018-05-10T00:48:57.128Z,99245.49
2018-05-10T00:50:03.059Z,99245.98
2018-05-10T00:51:08.860Z,99239.25
2018-05-10T00:52:15.580Z,99246.36
2018-05-10T00:53:21.375Z,99250.00
2018-05-10T00:54:43.935Z,99244.45
2018-05-10T00:55:49.711Z,99247.75
2018-05-10T00:56:55.476Z,99247.18
2018-05-10T00:58:01.257Z,99244.67
2018-05-10T00:59:07.239Z,99245.02
2018-05-10T01:00:13.776Z,99239.92
2018-05-10T01:01:19.550Z,99238.44
2018-05-10T01:02:25.868Z,99243.34
2018-05-10T01:03:31.683Z,99238.84
2018-05-10T01:04:37.447Z,99241.50
2018-05-10T01:05:43.211Z,99237.39
2018-05-10T01:06:49.047Z,99242.12
2018-05-10T01:07:54.819Z,99239.47
2018-05-10T01:09:01.376Z,99242.20
2018-05-10T01:10:07.669Z,99238.81
2018-05-10T01:11:13.436Z,99233.58
2018-05-10T01:12:19.449Z,99232.66
2018-05-10T01:13:25.218Z,99238.95
2018-05-10T01:14:31.017Z,99233.13
2018-05-10T01:15:37.599Z,99237.95
2018-05-10T01:16:43.389Z,99235.00
2018-05-10T01:17:49.589Z,99234.38
2018-05-10T01:18:55.348Z,99244.66
2018-05-10T01:20:01.164Z,99237.93
2018-05-10T01:21:06.943Z,99233.59
2018-05-10T01:22:12.467Z,99235.91
2018-05-10T01:23:18.248Z,99234.51
2018-05-10T01:24:25.523Z,99242.31
2018-05-10T01:25:31.316Z,99237.30
2018-05-10T01:26:37.093Z,99234.62
2018-05-10T01:27:42.866Z,99239.92
2018-05-10T01:28:48.640Z,99237.66
2018-05-10T01:29:54.408Z,99233.97
2018-05-10T01:31:00.200Z,99234.23
2018-05-10T01:32:06.726Z,99234.80
2018-05-10T01:33:12.490Z,99229.82
2018-05-10T01:34:19.032Z,99242.83
2018-05-10T01:35:41.659Z,99238.60
2018-05-10T01:36:47.444Z,99237.40
2018-05-10T01:37:53.987Z,99243.27
2018-05-10T01:39:00.077Z,99238.66
2018-05-10T01:40:05.851Z,99234.91
2018-05-10T01:41:11.619Z,99242.05
2018-05-10T01:42:18.170Z,99242.88
2018-05-10T01:43:23.935Z,99244.28
2018-05-10T01:44:30.471Z,99250.92
2018-05-10T01:45:36.234Z,99250.27
2018-05-10T01:46:41.999Z,99253.83
2018-05-10T01:47:47.789Z,99253.97
2018-05-10T01:48:53.548Z,99252.72
2018-05-10T01:49:59.412Z,99255.94
2018-05-10T01:51:05.604Z,99258.98
2018-05-10T01:52:11.399Z,99260.31
2018-05-10T01:53:17.951Z,99259.75
2018-05-10T01:54:24.486Z,99260.31
2018-05-10T01:55:30.261Z,99260.98
2018-05-10T01:56:36.799Z,99256.16
2018-05-10T01:57:42.568Z,99261.89
2018-05-10T01:58:49.130Z,99259.42
2018-05-10T01:59:55.655Z,99258.48
2018-05-10T02:01:02.269Z,99255.48
2018-05-10T02:02:08.032Z,99251.66
2018-05-10T02:03:13.802Z,99258.36
2018-05-10T02:04:21.102Z,99258.58
2018-05-10T02:05:27.642Z,99259.77
2018-05-10T02:06:33.399Z,99254.39
2018-05-10T02:07:39.162Z,99253.38
2018-05-10T02:08:44.938Z,99256.95
2018-05-10T02:09:50.709Z,99250.53
2018-05-10T02:10:56.484Z,99255.34
2018-05-10T02:12:02.793Z,99253.42
2018-05-10T02:13:08.568Z,99254.45
2018-05-10T02:14:15.106Z,99253.52
2018-05-10T02:15:20.892Z,99251.73
2018-05-10T02:16:26.662Z,99247.20
2018-05-10T02:17:32.427Z,99245.46
2018-05-10T02:18:38.186Z,99248.04
2018-05-10T02:19:43.951Z,99251.02
2018-05-10T02:20:49.749Z,99244.98
2018-05-10T02:21:55.526Z,99245.86
2018-05-10T02:23:02.051Z,99249.14
2018-05-10T02:24:07.825Z,99245.89
2018-05-10T02:25:13.581Z,99245.55
2018-05-10T02:26:19.370Z,99247.11
2018-05-10T02:27:25.140Z,99246.34
2018-05-10T02:28:30.909Z,99252.20
2018-05-10T02:29:36.754Z,99247.19
2018-05-10T02:30:42.656Z,99251.02
2018-05-10T02:31:48.449Z,99251.69
2018-05-10T02:32:54.206Z,99255.56
2018-05-10T02:33:59.984Z,99251.16
2018-05-10T02:35:05.513Z,99253.42
2018-05-10T02:36:11.281Z,99258.03
2018-05-10T02:37:17.071Z,99249.06
2018-05-10T02:38:22.841Z,99258.13
2018-05-10T02:39:28.611Z,99259.95
2018-05-10T02:40:35.141Z,99256.95
2018-05-10T02:41:40.901Z,99256.91
2018-05-10T02:42:46.689Z,99256.56
2018-05-10T02:43:52.447Z,99257.29
2018-05-10T02:44:58.245Z,99257.29
2018-05-10T02:46:03.951Z,99259.34
2018-05-10T02:47:09.731Z,99258.41
2018-05-10T02:48:16.285Z,99256.13
2018-05-10T02:49:22.838Z,99254.45
2018-05-10T02:50:29.373Z,99261.32
2018-05-10T02:51:35.136Z,99262.23
2018-05-10T02:52:41.659Z,99263.17
2018-05-10T02:53:47.439Z,99267.70
2018-05-10T02:54:53.207Z,99261.39
2018-05-10T02:55:58.962Z,99264.53
2018-05-10T02:57:04.239Z,99263.48
2018-05-10T02:58:10.005Z,99259.58
2018-05-10T02:59:16.566Z,99266.06
2018-05-10T03:00:23.087Z,99264.67
2018-05-10T03:01:28.855Z,99266.91
2018-05-10T03:02:35.392Z,99263.73
2018-05-10T03:03:41.167Z,99266.61
2018-05-10T03:04:47.727Z,99265.98
2018-05-10T03:05:54.243Z,99267.61
2018-05-10T03:07:00.006Z,99269.42
2018-05-10T03:08:05.962Z,99267.92
2018-05-10T03:09:12.247Z,99263.87
2018-05-10T03:10:18.035Z,99265.64
2018-05-10T03:11:23.801Z,99264.31
2018-05-10T03:12:29.677Z,99267.55
2018-05-10T03:13:35.434Z,99265.31
2018-05-10T03:14:41.203Z,99265.17
2018-05-10T03:15:46.996Z,99272.03
2018-05-10T03:16:52.451Z,99266.87
2018-05-10T03:17:58.211Z,99265.06
2018-05-10T03:19:03.963Z,99266.03
2018-05-10T03:20:09.739Z,99263.52
2018-05-10T03:21:16.292Z,99262.78
2018-05-10T03:22:22.847Z,99258.96
2018-05-10T03:23:28.604Z,99266.44
2018-05-10T03:24:35.126Z,99259.95
2018-05-10T03:25:40.662Z,99258.08
2018-05-10T03:26:46.447Z,99261.08
2018-05-10T03:27:52.975Z,99259.40
2018-05-10T03:28:58.413Z,99264.06
2018-05-10T03:30:03.966Z,99260.45
2018-05-10T03:31:10.635Z,99255.81
2018-05-10T03:32:17.168Z,99264.52
2018-05-10T03:33:22.963Z,99264.17
2018-05-10T03:34:30.030Z,99266.42
2018-05-10T03:35:35.791Z,99267.27
2018-05-10T03:36:40.906Z,99267.27
2018-05-10T03:37:46.705Z,99265.11
2018-05-10T03:38:53.970Z,99266.53
2018-05-10T03:39:59.736Z,99268.67
2018-05-10T03:41:06.275Z,99270.52
2018-05-10T03:42:12.044Z,99270.84
2018-05-10T03:43:18.605Z,99272.25
2018-05-10T03:44:24.899Z,99268.67
2018-05-10T03:45:30.666Z,99272.16
2018-05-10T03:46:36.771Z,99263.73
2018-05-10T03:47:42.534Z,99268.76
2018-05-10T03:48:48.327Z,99267.34
2018-05-10T03:49:54.864Z,99270.58
2018-05-10T03:51:00.619Z,99268.05
2018-05-10T03:52:07.155Z,99268.17
2018-05-10T03:53:12.939Z,99265.33
2018-05-10T03:54:18.722Z,99267.96
2018-05-10T03:55:24.493Z,99273.19
2018-05-10T03:56:30.239Z,99272.47
2018-05-10T03:57:36.015Z,99270.39
2018-05-10T03:58:41.779Z,99279.36
2018-05-10T03:59:47.612Z,99274.84
2018-05-10T04:00:53.367Z,99278.58
2018-05-10T04:01:59.127Z,99283.92
2018-05-10T04:05:23.543Z,99277.87
2018-05-10T04:06:47.070Z,99277.57
2018-05-10T04:08:09.843Z,99270.05
2018-05-10T04:09:32.458Z,99280.27
2018-05-10T04:10:55.157Z,99276.28
2018-05-10T04:12:00.926Z,99279.70
2018-05-10T04:13:06.692Z,99273.07
2018-05-10T04:14:12.456Z,99277.58
2018-05-10T04:15:18.982Z,99277.75
2018-05-10T04:16:24.887Z,99272.16
2018-05-10T04:17:30.643Z,99276.56
2018-05-10T04:18:36.419Z,99276.14
2018-05-10T04:19:42.236Z,99275.61
2018-05-10T04:20:48.007Z,99273.44
2018-05-10T04:21:53.794Z,99270.23
2018-05-10T04:22:59.579Z,99267.00
2018-05-10T04:24:05.417Z,99272.52
2018-05-10T04:25:11.240Z,99266.25
2018-05-10T04:26:16.868Z,99267.89
2018-05-10T04:27:22.701Z,99268.55
2018-05-10T04:28:28.513Z,99267.47
2018-05-10T04:29:34.284Z,99264.20
2018-05-10T04:30:40.800Z,99269.61
2018-05-10T04:31:46.567Z,99269.27
2018-05-10T04:32:53.124Z,99267.87
2018-05-10T04:33:59.660Z,99268.22
2018-05-10T04:35:05.427Z,99272.98
2018-05-10T04:36:11.726Z,99278.22
2018-05-10T04:37:17.495Z,99280.80
2018-05-10T04:38:23.301Z,99281.70
2018-05-10T04:39:29.136Z,99288.44
2018-05-10T04:40:34.895Z,99293.39
2018-05-10T04:41:40.651Z,99288.26
2018-05-10T04:42:46.419Z,99288.39
2018-05-10T04:43:52.973Z,99290.76
2018-05-10T04:44:58.735Z,99285.77
2018-05-10T04:46:05.283Z,99284.92
2018-05-10T04:47:11.043Z,99286.13
2018-05-10T04:48:17.584Z,99284.81
2018-05-10T04:49:24.883Z,99282.92
2018-05-10T04:50:31.424Z,99287.26
2018-05-10T04:51:37.967Z,99290.53
2018-05-10T04:52:43.537Z,99289.88
2018-05-10T04:53:50.055Z,99288.20
2018-05-10T04:54:55.842Z,99288.16
2018-05-10T04:56:02.374Z,99284.87
2018-05-10T04:57:08.135Z,99287.88
2018-05-10T04:58:14.661Z,99291.16
2018-05-10T04:59:20.436Z,99284.17
2018-05-10T05:00:26.997Z,99292.59
2018-05-10T05:01:33.534Z,99296.84
2018-05-10T05:02:39.297Z,99300.95
2018-05-10T05:03:45.832Z,99297.69
2018-05-10T05:04:51.592Z,99297.52
2018-05-10T05:05:58.141Z,99299.80
2018-05-10T05:07:03.895Z,99299.46
2018-05-10T05:08:10.435Z,99297.14
2018-05-10T05:09:16.188Z,99294.64
2018-05-10T05:10:21.943Z,99301.39
2018-05-10T05:11:28.495Z,99297.55
2018-05-10T05:12:34.256Z,99299.40
2018-05-10T05:13:40.787Z,99300.72
2018-05-10T05:14:46.550Z,99292.42
2018-05-10T05:15:53.079Z,99302.36
2018-05-10T05:16:58.871Z,99300.91
2018-05-10T05:18:04.626Z,99299.70
2018-05-10T05:19:10.151Z,99306.67
2018-05-10T05:20:15.932Z,99313.36
2018-05-10T05:21:21.695Z,99315.75
2018-05-10T05:22:27.477Z,99309.74
2018-05-10T05:23:33.243Z,99311.19
2018-05-10T05:24:38.999Z,99313.50
2018-05-10T05:25:44.767Z,99308.18
2018-05-10T05:26:50.618Z,99314.13
2018-05-10T05:27:56.541Z,99308.48
2018-05-10T05:29:02.296Z,99314.09
2018-05-10T05:30:08.075Z,99317.12
2018-05-10T05:31:13.839Z,99315.03
2018-05-10T05:32:19.613Z,99312.22
2018-05-10T05:33:25.398Z,99312.84
2018-05-10T05:34:31.166Z,99317.77
2018-05-10T05:35:36.976Z,99316.70
2018-05-10T05:36:42.928Z,99317.59
2018-05-10T05:37:48.909Z,99317.06
2018-05-10T05:38:54.699Z,99325.06
2018-05-10T05:40:01.280Z,99329.39
2018-05-10T05:41:07.063Z,99319.88
2018-05-10T05:42:13.101Z,99323.64
2018-05-10T05:43:18.925Z,99319.84
2018-05-10T05:44:25.651Z,99321.80
2018-05-10T05:45:32.188Z,99316.18
2018-05-10T05:46:37.950Z,99317.23
2018-05-10T05:47:43.705Z,99319.95
2018-05-10T05:48:50.339Z,99316.70
2018-05-10T05:49:56.119Z,99320.34
2018-05-10T05:51:01.967Z,99322.95
2018-05-10T05:52:07.743Z,99317.76
2018-05-10T05:53:13.529Z,99323.45
2018-05-10T05:54:19.292Z,99329.14
2018-05-10T05:55:25.101Z,99322.19
2018-05-10T05:56:31.068Z,99319.47
2018-05-10T05:57:37.592Z,99320.90
2018-05-10T05:58:44.869Z,99320.23
2018-05-10T05:59:50.635Z,99313.20
2018-05-10T06:00:57.238Z,99316.03
2018-05-10T06:02:03.964Z,99319.34
2018-05-10T06:03:10.501Z,99317.91
2018-05-10T06:04:16.392Z,99319.12
2018-05-10T06:05:22.159Z,99327.04
2018-05-10T06:06:27.959Z,99325.88
2018-05-10T06:07:34.501Z,99321.17
2018-05-10T06:08:40.310Z,99323.50
2018-05-10T06:09:46.274Z,99324.99
2018-05-10T06:10:52.041Z,99330.41
2018-05-10T06:11:58.598Z,99324.23
2018-05-10T06:13:05.133Z,99330.99
2018-05-10T06:14:10.903Z,99330.84
2018-05-10T06:15:17.440Z,99330.80
2018-05-10T06:16:23.213Z,99335.53
2018-05-10T06:17:29.788Z,99330.13
2018-05-10T06:18:35.561Z,99331.37
2018-05-10T06:19:41.324Z,99335.41
2018-05-10T06:20:47.101Z,99332.30
2018-05-10T06:21:52.867Z,99328.41
2018-05-10T06:22:58.643Z,99333.20
2018-05-10T06:24:04.206Z,99334.33
2018-05-10T06:25:11.047Z,99328.09
2018-05-10T06:26:16.759Z,99337.13
2018-05-10T06:27:22.523Z,99330.13
2018-05-10T06:28:28.320Z,99331.78
2018-05-10T06:29:35.092Z,99330.84
2018-05-10T06:30:40.856Z,99331.97
2018-05-10T06:31:46.631Z,99329.05
2018-05-10T06:32:52.408Z,99330.86
2018-05-10T06:33:59.000Z,99335.09
2018-05-10T06:35:05.718Z,99332.18
2018-05-10T06:36:12.820Z,99327.92
2018-05-10T06:37:18.604Z,99326.56
2018-05-10T06:38:24.378Z,99323.53
2018-05-10T06:39:30.937Z,99325.03
2018-05-10T06:40:37.322Z,99326.30
2018-05-10T06:41:43.168Z,99325.11
2018-05-10T06:42:48.944Z,99319.25
2018-05-10T06:43:54.735Z,99322.41
2018-05-10T06:45:00.549Z,99329.41
2018-05-10T06:46:06.693Z,99324.75
2018-05-10T06:47:13.252Z,99327.52
2018-05-10T06:48:20.547Z,99322.95
2018-05-10T06:49:26.880Z,99324.59
2018-05-10T06:50:32.676Z,99323.47
2018-05-10T06:51:38.439Z,99324.48
2018-05-10T06:52:44.209Z,99321.77
2018-05-10T06:53:49.986Z,99328.44
2018-05-10T06:54:56.280Z,99329.38
2018-05-10T06:56:02.064Z,99323.02
2018-05-10T06:57:08.610Z,99326.17
2018-05-10T06:58:14.370Z,99327.79
2018-05-10T06:59:20.908Z,99327.76
2018-05-10T07:00:26.679Z,99333.15
2018-05-10T07:01:33.243Z,99335.16
2018-05-10T07:02:39.781Z,99332.14
2018-05-10T07:03:45.555Z,99333.08
2018-05-10T07:04:50.996Z,99337.38
2018-05-10T07:05:56.767Z,99330.92
2018-05-10T07:07:02.645Z,99334.59
2018-05-10T07:08:09.198Z,99331.20
2018-05-10T07:09:16.430Z,99331.55
2018-05-10T07:10:23.158Z,99331.96
2018-05-10T07:11:29.696Z,99333.06
2018-05-10T07:12:36.270Z,99333.52
2018-05-10T07:13:42.804Z,99334.52
2018-05-10T07:14:48.583Z,99334.73
2018-05-10T07:15:55.111Z,99331.66
2018-05-10T07:17:00.882Z,99331.53
2018-05-10T07:18:07.452Z,99333.86
2018-05-10T07:19:13.756Z,99334.14
2018-05-10T07:20:19.524Z,99334.05
2018-05-10T07:21:26.168Z,99326.98
2018-05-10T07:22:31.948Z,99332.84
2018-05-10T07:23:38.574Z,99331.09
2018-05-10T07:24:44.589Z,99333.67
2018-05-10T07:25:50.395Z,99330.87
2018-05-10T07:26:56.949Z,99330.80
2018-05-10T07:28:02.719Z,99336.30
2018-05-10T07:29:08.688Z,99327.75
2018-05-10T07:30:14.511Z,99329.89
2018-05-10T07:31:20.339Z,99332.30
2018-05-10T07:32:26.873Z,99330.05
2018-05-10T07:33:32.652Z,99330.16
2018-05-10T07:34:39.833Z,99333.91
2018-05-10T07:35:45.880Z,99331.59
2018-05-10T07:36:51.672Z,99331.64
2018-05-10T07:37:58.168Z,99330.05
2018-05-10T07:39:03.820Z,99338.16
2018-05-10T07:40:09.785Z,99332.73
2018-05-10T07:41:15.687Z,99331.28
2018-05-10T07:42:22.378Z,99333.52
2018-05-10T07:43:28.265Z,99329.98
2018-05-10T07:44:34.365Z,99329.97
2018-05-10T07:45:40.520Z,99332.58
2018-05-10T07:46:46.472Z,99329.98
2018-05-10T07:47:52.264Z,99338.75
2018-05-10T07:48:58.041Z,99336.56
2018-05-10T07:50:03.811Z,99340.14
2018-05-10T07:51:09.608Z,99338.33
2018-05-10T07:52:16.403Z,99341.23
2018-05-10T07:53:22.348Z,99345.03
2018-05-10T07:54:28.458Z,99345.98
2018-05-10T07:55:34.286Z,99350.70
2018-05-10T07:56:40.095Z,99345.57
2018-05-10T07:57:45.953Z,99343.01
2018-05-10T07:58:51.757Z,99349.09
2018-05-10T07:59:58.290Z,99350.93
2018-05-10T08:01:04.972Z,99345.66
2018-05-10T08:02:11.588Z,99341.62
2018-05-10T08:03:17.559Z,99350.28
2018-05-10T08:04:24.621Z,99344.33
2018-05-10T08:05:31.415Z,99351.34
2018-05-10T08:06:37.873Z,99346.75
2018-05-10T08:07:43.901Z,99347.59
2018-05-10T08:08:49.832Z,99355.46
2018-05-10T08:09:56.055Z,99352.36
2018-05-10T08:11:02.823Z,99352.05
2018-05-10T08:12:10.345Z,99353.48
2018-05-10T08:13:17.126Z,99349.16
2018-05-10T08:14:23.710Z,99348.80
2018-05-10T08:15:29.778Z,99350.66
2018-05-10T08:16:35.596Z,99343.25
2018-05-10T08:17:41.399Z,99346.33
2018-05-10T08:18:47.192Z,99345.45
2018-05-10T08:19:52.920Z,99352.20
2018-05-10T08:20:58.679Z,99354.95
2018-05-10T08:22:06.111Z,99354.55
2018-05-10T08:23:14.767Z,99349.47
2018-05-10T08:24:22.174Z,99350.98
2018-05-10T08:25:28.985Z,99350.05
2018-05-10T08:26:34.670Z,99351.96
2018-05-10T08:27:48.494Z,99353.70
2018-05-10T08:28:56.467Z,99352.20
2018-05-10T08:30:02.318Z,99355.36
2018-05-10T08:31:08.028Z,99355.06
2018-05-10T08:32:14.249Z,99348.42
2018-05-10T08:33:19.945Z,99351.80
2018-05-10T08:34:27.231Z,99352.48
2018-05-10T08:35:32.827Z,99353.75
2018-05-10T08:36:38.397Z,99346.59
2018-05-10T08:37:44.453Z,99347.30
2018-05-10T08:38:51.254Z,99342.91
2018-05-10T08:39:56.962Z,99347.02
2018-05-10T08:41:02.593Z,99351.70
2018-05-10T08:42:09.331Z,99349.86
2018-05-10T08:43:14.710Z,99347.42
2018-05-10T08:44:20.638Z,99349.88
2018-05-10T08:45:27.803Z,99351.41
2018-05-10T08:46:33.538Z,99353.70
2018-05-10T08:47:39.192Z,99354.09
2018-05-10T08:48:45.046Z,99354.52
2018-05-10T08:49:50.982Z,99361.45
2018-05-10T08:50:56.928Z,99352.59
2018-05-10T08:52:02.966Z,99352.81
2018-05-10T08:53:08.814Z,99357.52
2018-05-10T08:54:16.584Z,99352.19
2018-05-10T08:55:23.200Z,99352.30
2018-05-10T08:56:29.114Z,99352.73
2018-05-10T08:57:34.837Z,99356.14
2018-05-10T08:58:40.419Z,99350.88
2018-05-10T08:59:46.949Z,99351.70
2018-05-10T09:00:52.571Z,99351.63
2018-05-10T09:01:58.333Z,99353.05
2018-05-10T09:03:05.711Z,99344.44
2018-05-10T09:04:11.969Z,99348.33
2018-05-10T09:05:17.604Z,99352.05
2018-05-10T09:06:23.656Z,99355.79
2018-05-10T09:07:29.398Z,99351.64
2018-05-10T09:08:37.272Z,99352.20
2018-05-10T09:09:43.232Z,99359.88
2018-05-10T09:10:49.282Z,99355.20
2018-05-10T09:11:55.330Z,99361.92
2018-05-10T09:13:01.210Z,99361.28
2018-05-10T09:14:06.665Z,99356.16
2018-05-10T09:15:12.701Z,99359.00
2018-05-10T09:16:18.679Z,99358.05
2018-05-10T09:17:25.840Z,99359.53
2018-05-10T09:18:32.742Z,99363.05
2018-05-10T09:19:38.884Z,99361.09
2018-05-10T09:20:45.662Z,99360.43
2018-05-10T09:21:51.427Z,99363.95
2018-05-10T09:22:57.246Z,99363.83
2018-05-10T09:24:03.064Z,99366.77
2018-05-10T09:25:09.956Z,99366.14
2018-05-10T09:26:15.759Z,99362.57
2018-05-10T09:27:22.391Z,99364.73
2018-05-10T09:28:28.179Z,99360.00
2018-05-10T09:29:34.776Z,99359.81
2018-05-10T09:30:40.701Z,99358.33
2018-05-10T09:31:46.944Z,99364.22
2018-05-10T09:32:52.879Z,99365.41
2018-05-10T09:33:59.596Z,99358.78
2018-05-10T09:35:05.578Z,99361.01
2018-05-10T09:36:12.292Z,99362.84
2018-05-10T09:37:18.116Z,99362.16
2018-05-10T09:38:25.454Z,99362.88
2018-05-10T09:39:31.213Z,99360.41
2018-05-10T09:40:37.657Z,99356.20
2018-05-10T09:41:43.484Z,99355.94
2018-05-10T09:42:49.186Z,99360.46
2018-05-10T09:43:54.914Z,99363.45
2018-05-10T09:45:00.951Z,99362.72
2018-05-10T09:46:06.854Z,99356.43
2018-05-10T09:47:13.440Z,99361.98
2018-05-10T09:48:19.088Z,99362.17
2018-05-10T09:49:24.821Z,99366.83
2018-05-10T09:50:30.529Z,99364.64
2018-05-10T09:51:37.121Z,99374.09
2018-05-10T09:52:43.099Z,99370.39
2018-05-10T09:53:49.057Z,99373.78
2018-05-10T09:54:54.864Z,99378.72
2018-05-10T09:56:00.687Z,99374.09
2018-05-10T09:57:06.492Z,99369.44
2018-05-10T09:58:12.820Z,99377.28
2018-05-10T09:59:18.493Z,99373.23
2018-05-10T10:00:29.775Z,99363.80
2018-05-10T10:01:36.160Z,99374.63
2018-05-10T10:02:41.743Z,99375.47
2018-05-10T10:03:47.392Z,99369.45
2018-05-10T10:04:52.773Z,99374.23
2018-05-10T10:05:58.456Z,99375.03
2018-05-10T10:07:04.044Z,99375.72
2018-05-10T10:08:10.605Z,99380.34
2018-05-10T10:09:18.044Z,99369.74
2018-05-10T10:10:23.620Z,99373.53
2018-05-10T10:11:29.506Z,99378.09
2018-05-10T10:12:35.416Z,99371.45
2018-05-10T10:13:41.337Z,99366.39
2018-05-10T10:14:47.124Z,99372.85
2018-05-10T10:15:53.653Z,99375.98
2018-05-10T10:16:59.243Z,99385.28
2018-05-10T10:18:05.064Z,99373.72
2018-05-10T10:19:11.113Z,99373.28
2018-05-10T10:20:16.969Z,99377.09
2018-05-10T10:21:23.497Z,99373.22
2018-05-10T10:22:31.443Z,99377.06
2018-05-10T10:23:37.793Z,99375.41
2018-05-10T10:24:43.596Z,99373.11
2018-05-10T10:25:50.144Z,99380.12
2018-05-10T10:26:56.142Z,99384.31
2018-05-10T10:28:01.962Z,99391.52
2018-05-10T10:29:09.049Z,99386.38
2018-05-10T10:30:15.638Z,99383.39
2018-05-10T10:31:21.978Z,99382.63
2018-05-10T10:32:28.209Z,99382.88
2018-05-10T10:33:36.359Z,99386.24
2018-05-10T10:34:42.387Z,99374.81
2018-05-10T10:35:48.423Z,99373.98
2018-05-10T10:36:54.468Z,99377.47
2018-05-10T10:38:00.218Z,99378.88
2018-05-10T10:39:05.216Z,99372.93
2018-05-10T10:40:11.831Z,99377.52
2018-05-10T10:41:18.862Z,99383.05
2018-05-10T10:42:24.775Z,99381.31
2018-05-10T10:43:30.821Z,99374.83
2018-05-10T10:44:36.892Z,99376.59
2018-05-10T10:45:42.953Z,99377.48
2018-05-10T10:46:48.900Z,99375.53
2018-05-10T10:47:54.848Z,99373.41
2018-05-10T10:49:00.639Z,99377.30
2018-05-10T10:50:07.367Z,99369.75
2018-05-10T10:51:14.115Z,99373.84
2018-05-10T10:52:20.155Z,99372.58
2018-05-10T10:54:43.265Z,99369.19
2018-05-10T10:55:49.326Z,99374.69
2018-05-10T10:56:56.144Z,99375.25
2018-05-10T10:58:02.182Z,99373.40
2018-05-10T10:59:08.339Z,99379.91
2018-05-10T11:00:15.337Z,99381.41
2018-05-10T11:01:23.073Z,99376.94
2018-05-10T11:02:28.857Z,99376.63
2018-05-10T11:03:36.009Z,99380.89
2018-05-10T11:04:42.035Z,99382.73
2018-05-10T11:05:48.087Z,99380.59
2018-05-10T11:06:55.087Z,99375.69
2018-05-10T11:08:01.127Z,99379.45
2018-05-10T11:09:06.992Z,99377.61
2018-05-10T11:10:13.220Z,99375.75
2018-05-10T11:11:19.168Z,99379.63
2018-05-10T11:12:26.260Z,99385.59
2018-05-10T11:13:32.841Z,99381.02
2018-05-10T11:14:38.749Z,99387.53
2018-05-10T11:15:44.613Z,99385.16
2018-05-10T11:16:50.523Z,99387.36
2018-05-10T11:17:57.052Z,99386.47
2018-05-10T11:19:02.939Z,99383.30
2018-05-10T11:20:08.982Z,99388.85
2018-05-10T11:21:15.555Z,99384.33
2018-05-10T11:22:21.367Z,99385.44
2018-05-10T11:23:28.185Z,99391.80
2018-05-10T11:24:34.989Z,99387.09
2018-05-10T11:25:42.240Z,99390.41
2018-05-10T11:26:48.451Z,99386.55
2018-05-10T11:27:54.590Z,99385.78
2018-05-10T11:29:01.263Z,99377.41
2018-05-10T11:30:07.211Z,99378.47
2018-05-10T11:31:13.263Z,99380.70
2018-05-10T11:32:19.108Z,99383.89
2018-05-10T11:33:25.022Z,99377.69
2018-05-10T11:34:31.771Z,99374.23
2018-05-10T11:35:38.648Z,99380.87
2018-05-10T11:36:45.651Z,99376.90
2018-05-10T11:37:51.500Z,99373.58
2018-05-10T11:38:57.289Z,99375.44
2018-05-10T11:40:06.263Z,99366.45
2018-05-10T11:41:12.406Z,99369.21
2018-05-10T11:42:18.271Z,99370.16
2018-05-10T11:43:24.207Z,99370.91
2018-05-10T11:44:30.458Z,99370.45
2018-05-10T11:45:38.086Z,99373.28
2018-05-10T11:46:44.593Z,99369.70
2018-05-10T11:47:50.744Z,99370.94
2018-05-10T11:48:57.608Z,99364.62
2018-05-10T11:50:04.072Z,99370.12
2018-05-10T11:51:10.218Z,99374.23
2018-05-10T11:52:16.237Z,99366.51
2018-05-10T11:53:22.354Z,99361.16
2018-05-10T11:54:28.371Z,99362.86
2018-05-10T11:55:34.531Z,99355.72
2018-05-10T11:56:40.647Z,99364.03
2018-05-10T11:57:46.820Z,99365.23
2018-05-10T11:58:52.865Z,99356.56
2018-05-10T11:59:59.161Z,99352.45
2018-05-10T12:01:05.376Z,99361.16
2018-05-10T12:02:11.419Z,99358.67
2018-05-10T12:03:17.466Z,99356.16
2018-05-10T12:04:24.358Z,99353.87
2018-05-10T12:05:30.383Z,99365.02
2018-05-10T12:06:37.100Z,99355.47
2018-05-10T12:07:43.168Z,99354.11
2018-05-10T12:08:49.123Z,99365.02
2018-05-10T12:09:55.243Z,99359.99
2018-05-10T12:11:01.573Z,99356.95
2018-05-10T12:12:07.796Z,99355.14
2018-05-10T12:13:13.723Z,99354.30
2018-05-10T12:14:21.128Z,99350.74
2018-05-10T12:15:27.225Z,99352.42
2018-05-10T12:16:34.685Z,99355.69
2018-05-10T12:17:41.212Z,99360.52
2018-05-10T12:18:47.982Z,99362.41
2018-05-10T12:19:54.137Z,99357.95
2018-05-10T12:21:00.183Z,99354.72
2018-05-10T12:22:06.329Z,99360.47
2018-05-10T12:23:13.776Z,99357.16
2018-05-10T12:24:20.385Z,99355.14
2018-05-10T12:25:26.691Z,99354.06
2018-05-10T12:26:32.879Z,99354.67
2018-05-10T12:27:38.817Z,99351.81
2018-05-10T12:28:46.696Z,99352.84
2018-05-10T12:29:53.583Z,99345.55
2018-05-10T12:30:59.570Z,99347.42
2018-05-10T12:32:05.721Z,99351.45
2018-05-10T12:33:11.831Z,99353.31
2018-05-10T12:34:17.882Z,99355.07
2018-05-10T12:35:23.862Z,99353.56
2018-05-10T12:36:29.871Z,99349.57
2018-05-10T12:37:35.811Z,99344.69
2018-05-10T12:38:42.689Z,99352.52
2018-05-10T12:39:48.921Z,99352.02
2018-05-10T12:40:56.131Z,99346.55
2018-05-10T12:42:02.926Z,99344.02
2018-05-10T12:43:08.930Z,99349.84
2018-05-10T12:44:14.723Z,99351.34
2018-05-10T12:45:20.652Z,99347.80
2018-05-10T12:46:26.793Z,99354.67
2018-05-10T12:47:33.366Z,99356.69
2018-05-10T12:48:39.206Z,99351.11
2018-05-10T12:49:45.526Z,99353.15
2018-05-10T12:50:51.608Z,99347.64
2018-05-10T12:51:57.331Z,99345.52
2018-05-10T12:53:03.618Z,99351.33
2018-05-10T12:54:09.372Z,99348.78
2018-05-10T12:55:15.254Z,99353.06
2018-05-10T12:56:21.185Z,99354.66
2018-05-10T12:57:27.097Z,99350.45
2018-05-10T12:58:33.087Z,99350.03
2018-05-10T12:59:39.729Z,99359.75
2018-05-10T13:00:45.484Z,99355.69
2018-05-10T13:01:52.162Z,99354.13